Time;durP1;ratioP1;P1;durP2;ratioP2;P2;SDS_P1;SDS_P2;PMS_P1;PMS_P2;Temp;Humidity;BMP_temperature;BMP_pressure;BME280_temperature;BME280_humidity;BME280_pressure;Samples;Min_cycle;Max_cycle;Signal;HPM_P1;HPM_P2
2022/09/06 00:01:48;;;;;;;3.50;1.80;;;;;;;9.78;61.97;101538.56;89346;1260;98376;-56
2022/09/06 00:03:59;;;;;;;4.20;1.90;;;;;;;9.71;62.02;101534.45;89385;1260;87393;-56
2022/09/06 00:06:15;;;;;;;2.30;1.50;;;;;;;9.63;62.29;101536.52;89391;1260;94148;-58
2022/09/06 00:08:26;;;;;;;3.80;1.80;;;;;;;9.55;62.48;101534.21;89379;1261;79763;-57
2022/09/06 00:10:42;;;;;;;3.10;1.70;;;;;;;9.52;62.72;101532.38;89380;1260;82907;-57
2022/09/06 00:12:55;;;;;;;3.00;1.40;;;;;;;9.55;62.55;101531.05;89416;1260;97914;-57
2022/09/06 00:15:10;;;;;;;3.90;1.60;;;;;;;9.57;62.62;101528.44;89427;1260;88186;-57
2022/09/06 00:17:21;;;;;;;2.80;1.50;;;;;;;9.62;62.60;101533.23;89414;1260;94243;-60
2022/09/06 00:19:37;;;;;;;2.90;1.60;;;;;;;9.66;62.76;101532.19;89480;1261;79723;-60
2022/09/06 00:21:49;;;;;;;4.10;1.60;;;;;;;9.70;62.68;101533.45;89399;1260;82310;-59
2022/09/06 00:24:00;;;;;;;3.70;1.60;;;;;;;9.73;62.78;101534.78;89402;1261;98258;-59
2022/09/06 00:26:10;;;;;;;2.80;1.50;;;;;;;9.78;62.75;101535.27;89478;1260;88012;-55
2022/09/06 00:28:21;;;;;;;3.50;1.70;;;;;;;9.81;62.64;101531.94;89435;1252;94322;-53
2022/09/06 00:30:34;;;;;;;6.90;1.70;;;;;;;9.82;62.61;101530.91;89432;1260;79842;-55
2022/09/06 00:32:53;;;;;;;2.90;1.50;;;;;;;9.84;62.55;101532.19;89480;1261;81221;-59
2022/09/06 00:35:05;;;;;;;2.00;1.50;;;;;;;9.83;62.42;101532.96;89454;1260;98492;-60
2022/09/06 00:37:17;;;;;;;7.90;2.70;;;;;;;9.78;62.48;101537.08;89504;1260;88649;-55
2022/09/06 00:39:31;;;;;;;3.20;1.60;;;;;;;9.74;62.51;101536.23;89416;1260;95087;-56
2022/09/06 00:41:55;;;;;;;3.20;1.20;;;;;;;9.70;62.44;101533.57;89448;1261;78182;-56
2022/09/06 00:44:07;;;;;;;3.30;1.20;;;;;;;9.75;62.23;101532.57;89479;1260;83140;-55
2022/09/06 00:46:27;;;;;;;4.10;1.30;;;;;;;9.80;62.10;101530.39;89459;1260;97121;-56
2022/09/06 00:48:40;;;;;;;4.40;1.20;;;;;;;9.89;62.00;101527.48;89458;1260;88771;-54
2022/09/06 00:50:56;;;;;;;4.60;1.30;;;;;;;9.97;61.84;101524.71;89419;1260;93993;-56
2022/09/06 00:53:10;;;;;;;2.40;1.40;;;;;;;10.02;61.55;101521.60;89413;1260;78559;-56
2022/09/06 00:55:25;;;;;;;;;;;;;;;10.05;61.53;101522.34;89423;1260;82787;-56
2022/09/06 00:57:37;;;;;;;3.80;1.10;;;;;;;10.12;61.32;101524.98;89445;1261;98067;-58
2022/09/06 00:59:50;;;;;;;2.90;1.10;;;;;;;10.14;61.25;101527.81;89414;1260;89000;-57
2022/09/06 01:02:04;;;;;;;3.90;1.30;;;;;;;10.13;61.04;101527.40;89446;1261;94269;-56
2022/09/06 01:04:14;;;;;;;;;;;;;;;10.13;60.94;101525.95;89455;1261;79847;-55
2022/09/06 01:06:38;;;;;;;3.20;1.20;;;;;;;10.13;60.82;101526.29;89456;1261;82210;-57
2022/09/06 01:09:01;;;;;;;3.50;1.20;;;;;;;10.12;60.78;101525.90;89441;1261;98747;-57
2022/09/06 01:11:29;;;;;;;3.00;1.40;;;;;;;10.08;60.87;101523.19;89464;1261;87431;-58
2022/09/06 01:13:53;;;;;;;4.40;1.30;;;;;;;10.04;60.78;101520.88;89474;1260;95047;-57
2022/09/06 01:16:15;;;;;;;3.50;1.20;;;;;;;9.99;60.83;101519.80;89425;1260;79862;-58
2022/09/06 01:18:39;;;;;;;2.80;1.20;;;;;;;9.95;60.84;101521.67;89396;1261;82167;-57
2022/09/06 01:21:14;;;;;;;2.80;1.40;;;;;;;9.91;60.98;101520.29;89410;1260;98288;-57
2022/09/06 01:24:07;;;;;;;2.60;0.90;;;;;;;9.88;61.05;101523.30;89416;1260;88314;-55
2022/09/06 01:26:49;;;;;;;1.80;1.10;;;;;;;9.85;61.08;101518.89;89431;1261;94535;-59
2022/09/06 01:29:05;;;;;;;1.80;1.10;;;;;;;9.87;61.07;101517.30;89362;1260;80896;-59
2022/09/06 01:31:28;;;;;;;2.80;1.10;;;;;;;9.87;61.11;101518.02;89380;1261;80467;-56
2022/09/06 01:33:47;;;;;;;2.10;1.00;;;;;;;9.88;61.15;101516.75;89385;1260;99047;-57
2022/09/06 01:36:05;;;;;;;3.20;1.00;;;;;;;9.89;61.19;101519.18;89381;1261;89018;-58
2022/09/06 01:38:16;;;;;;;1.80;1.00;;;;;;;9.94;61.08;101515.27;89360;1261;94448;-58
2022/09/06 01:40:29;;;;;;;2.50;1.10;;;;;;;9.98;60.94;101515.75;89361;1261;79302;-58
2022/09/06 01:42:46;;;;;;;2.90;1.30;;;;;;;9.97;60.85;101520.33;89404;1261;82441;-57
2022/09/06 01:45:00;;;;;;;2.00;1.20;;;;;;;9.94;60.91;101516.65;89364;1260;97695;-58
2022/09/06 01:47:16;;;;;;;;;;;;;;;9.92;61.09;101520.48;89399;1261;89001;-59
2022/09/06 01:49:42;;;;;;;2.00;1.10;;;;;;;9.87;61.04;101518.50;89353;1260;94639;-59
2022/09/06 01:52:11;;;;;;;2.20;1.20;;;;;;;9.81;61.21;101519.19;89387;1260;80609;-59
2022/09/06 01:54:51;;;;;;;5.00;1.30;;;;;;;9.72;61.55;101522.79;89392;1260;81830;-59
2022/09/06 01:57:16;;;;;;;2.40;0.90;;;;;;;9.59;61.76;101518.88;89420;1261;97590;-56
2022/09/06 01:59:37;;;;;;;;;;;;;;;9.52;62.14;101520.90;89386;1262;88175;-56
2022/09/06 02:02:03;;;;;;;2.80;1.10;;;;;;;9.51;62.43;101517.96;89389;1260;95538;-58
2022/09/06 02:04:27;;;;;;;5.00;1.30;;;;;;;9.49;62.62;101519.77;89354;1260;78838;-57
2022/09/06 02:06:50;;;;;;;2.00;1.10;;;;;;;9.46;62.94;101516.64;89389;1260;81945;-58
2022/09/06 02:09:08;;;;;;;2.50;1.10;;;;;;;9.38;63.11;101518.77;89346;1261;98883;-57
2022/09/06 02:11:27;;;;;;;3.10;1.40;;;;;;;9.30;63.56;101525.08;89410;1261;88427;-57
2022/09/06 02:13:47;;;;;;;2.20;1.40;;;;;;;9.22;63.82;101522.20;89384;1261;93105;-57
2022/09/06 02:16:03;;;;;;;3.20;1.40;;;;;;;9.13;64.08;101523.05;89341;1261;80290;-58
2022/09/06 02:18:16;;;;;;;2.20;1.20;;;;;;;9.04;64.38;101526.16;89366;1260;81444;-55
2022/09/06 02:20:33;;;;;;;2.80;1.70;;;;;;;8.97;64.57;101521.09;89404;1261;96384;-56
2022/09/06 02:22:50;;;;;;;3.60;1.50;;;;;;;8.87;64.94;101522.73;89412;1260;88716;-56
2022/09/06 02:25:04;;;;;;;3.00;1.40;;;;;;;8.77;65.02;101523.38;89393;1260;95667;-55
2022/09/06 02:27:15;;;;;;;1.60;1.10;;;;;;;8.67;65.24;101524.55;89355;1262;80025;-56
2022/09/06 02:29:26;;;;;;;2.90;1.40;;;;;;;8.60;65.53;101522.73;89404;1261;82005;-55
2022/09/06 02:31:42;;;;;;;2.20;0.80;;;;;;;8.54;65.80;101524.04;89385;1260;97688;-58
2022/09/06 02:34:00;;;;;;;3.00;1.70;;;;;;;8.50;65.83;101526.27;89439;1261;88560;-58
2022/09/06 02:36:13;;;;;;;2.80;1.30;;;;;;;8.48;66.10;101528.50;89436;1261;94909;-55
2022/09/06 02:38:28;;;;;;;2.30;1.20;;;;;;;8.43;66.39;101531.63;89412;1261;79737;-56
2022/09/06 02:40:43;;;;;;;2.20;1.10;;;;;;;8.39;66.60;101534.38;89453;1260;82034;-56
2022/09/06 02:42:59;;;;;;;6.00;1.80;;;;;;;8.34;66.67;101535.55;89296;1261;97152;-57
2022/09/06 02:45:10;;;;;;;3.50;1.60;;;;;;;8.26;66.94;101537.21;89417;1260;87487;-58
2022/09/06 02:47:24;;;;;;;3.50;1.30;;;;;;;8.23;67.04;101536.44;89431;1260;93111;-55
2022/09/06 02:49:39;;;;;;;2.60;1.00;;;;;;;8.21;67.39;101535.73;89397;1260;80798;-56
2022/09/06 02:51:53;;;;;;;3.10;1.30;;;;;;;8.21;67.24;101535.87;89387;1260;82661;-60
2022/09/06 02:54:02;;;;;;;;;;;;;;;8.20;67.34;101537.23;89272;1262;97443;-59
2022/09/06 02:56:14;;;;;;;1.50;1.10;;;;;;;8.18;67.57;101536.56;89384;1261;87928;-57
2022/09/06 02:58:30;;;;;;;3.60;1.30;;;;;;;8.18;67.79;101531.71;89373;1260;95422;-58
2022/09/06 03:00:47;;;;;;;2.80;1.30;;;;;;;8.19;67.96;101530.89;89394;1261;77773;-57
2022/09/06 03:03:02;;;;;;;4.10;1.30;;;;;;;8.18;68.08;101534.04;89295;1261;82882;-55
2022/09/06 03:05:13;;;;;;;2.40;1.30;;;;;;;8.16;68.17;101527.92;89413;1260;97430;-56
2022/09/06 03:07:31;;;;;;;2.20;1.30;;;;;;;8.16;68.20;101529.73;89450;1260;87907;-55
2022/09/06 03:09:44;;;;;;;2.80;1.20;;;;;;;8.12;68.52;101521.66;89413;1260;93977;-56
2022/09/06 03:11:58;;;;;;;4.70;1.60;;;;;;;8.10;68.49;101519.92;89407;1261;80639;-59
2022/09/06 03:14:10;;;;;;;2.30;1.20;;;;;;;8.05;68.56;101518.05;89290;1262;81761;-59
2022/09/06 03:16:24;;;;;;;3.90;1.30;;;;;;;8.03;68.48;101520.98;89436;1252;98302;-57
2022/09/06 03:18:37;;;;;;;3.10;1.20;;;;;;;7.98;68.71;101518.72;89428;1260;88457;-57
2022/09/06 03:20:48;;;;;;;3.80;1.50;;;;;;;8.00;68.52;101520.01;89418;1260;94491;-57
2022/09/06 03:23:02;;;;;;;3.90;1.20;;;;;;;8.01;68.64;101521.88;89432;1261;81203;-57
2022/09/06 03:25:14;;;;;;;3.50;1.20;;;;;;;7.99;68.84;101524.89;89404;1261;82288;-58
2022/09/06 03:27:29;;;;;;;2.80;1.40;;;;;;;7.99;69.03;101527.06;89437;1261;96489;-58
2022/09/06 03:29:48;;;;;;;3.60;1.70;;;;;;;8.00;69.25;101524.63;89381;1260;87958;-58
2022/09/06 03:32:01;;;;;;;3.30;1.70;;;;;;;8.02;69.26;101520.55;89371;1260;93309;-57
2022/09/06 03:34:16;;;;;;;2.50;1.10;;;;;;;8.07;69.18;101521.27;89402;1261;79653;-58
2022/09/06 03:36:29;;;;;;;2.50;1.60;;;;;;;8.06;69.18;101522.59;89418;1260;82343;-54
2022/09/06 03:38:39;;;;;;;3.30;1.40;;;;;;;8.06;69.52;101526.91;89233;1261;97797;-54
2022/09/06 03:40:51;;;;;;;4.30;1.50;;;;;;;8.06;69.53;101528.89;89269;1262;86930;-55
2022/09/06 03:43:02;;;;;;;4.90;1.50;;;;;;;8.04;69.59;101528.58;89082;1264;94743;-56
2022/09/06 03:45:13;;;;;;;2.50;1.20;;;;;;;8.06;69.64;101527.98;89206;1262;80919;-55
2022/09/06 03:47:25;;;;;;;2.50;1.40;;;;;;;8.14;69.43;101527.63;89258;1262;81327;-57
2022/09/06 03:49:36;;;;;;;4.50;1.30;;;;;;;8.21;69.52;101526.55;89232;1262;98217;-58
2022/09/06 03:51:52;;;;;;;3.20;1.50;;;;;;;8.22;69.77;101522.83;89285;1262;87453;-55
2022/09/06 03:54:08;;;;;;;2.40;1.50;;;;;;;8.24;69.95;101516.88;89213;1262;93434;-55
2022/09/06 03:56:17;;;;;;;2.90;1.70;;;;;;;8.33;69.82;101518.46;89284;1262;79187;-57
2022/09/06 03:58:31;;;;;;;3.90;1.70;;;;;;;8.39;69.78;101510.88;89247;1262;82070;-57
2022/09/06 04:00:46;;;;;;;5.10;1.60;;;;;;;8.41;69.77;101511.77;89265;1262;96371;-57
2022/09/06 04:02:55;;;;;;;4.30;2.10;;;;;;;8.38;69.88;101515.55;89308;1262;88821;-57
2022/09/06 04:05:12;;;;;;;4.40;1.80;;;;;;;8.35;70.09;101513.39;89292;1262;93754;-57
2022/09/06 04:07:24;;;;;;;2.90;1.40;;;;;;;8.35;69.95;101507.68;89279;1262;81453;-56
2022/09/06 04:09:39;;;;;;;5.90;2.00;;;;;;;8.34;70.02;101505.95;89263;1262;81686;-57
2022/09/06 04:11:53;;;;;;;3.80;1.60;;;;;;;8.37;69.97;101509.80;89108;1264;98873;-57
2022/09/06 04:14:03;;;;;;;3.60;1.60;;;;;;;8.41;69.93;101507.44;89203;1262;88667;-57
2022/09/06 04:16:20;;;;;;;5.50;1.80;;;;;;;8.45;70.04;101509.69;89254;1262;94934;-59
2022/09/06 04:18:32;;;;;;;7.60;2.60;;;;;;;8.48;70.02;101506.95;89231;1262;78046;-61
2022/09/06 04:20:45;;;;;;;6.10;2.00;;;;;;;8.57;70.03;101505.13;89249;1262;82338;-60
2022/09/06 04:22:54;;;;;;;3.60;2.00;;;;;;;8.65;69.91;101504.29;89280;1262;98982;-53
2022/09/06 04:25:08;;;;;;;6.20;2.00;;;;;;;8.75;69.88;101506.92;89304;1262;87942;-55
2022/09/06 04:27:24;;;;;;;3.10;1.60;;;;;;;8.89;69.61;101506.39;89254;1262;94278;-55
2022/09/06 04:29:34;;;;;;;3.50;2.00;;;;;;;9.06;69.53;101506.30;89221;1262;80626;-54
2022/09/06 04:31:47;;;;;;;8.00;2.20;;;;;;;9.21;69.27;101505.04;89255;1262;80367;-54
2022/09/06 04:33:58;;;;;;;3.70;1.80;;;;;;;9.32;68.99;101506.96;89220;1262;97447;-55
2022/09/06 04:36:11;;;;;;;6.30;2.20;;;;;;;9.41;68.78;101508.33;89211;1262;88355;-56
2022/09/06 04:38:28;;;;;;;5.40;2.50;;;;;;;9.55;68.60;101510.89;89240;1262;94780;-57
2022/09/06 04:40:37;;;;;;;3.70;2.10;;;;;;;9.69;68.54;101512.34;89206;1262;79540;-57
2022/09/06 04:42:53;;;;;;;6.00;2.30;;;;;;;9.78;68.33;101513.20;89259;1261;81379;-54
2022/09/06 04:45:04;;;;;;;4.00;1.90;;;;;;;9.84;68.42;101514.69;89214;1262;98762;-56
2022/09/06 04:47:17;;;;;;;7.10;2.40;;;;;;;9.89;68.34;101515.58;89276;1262;88428;-57
2022/09/06 04:49:30;;;;;;;3.80;1.80;;;;;;;9.92;68.39;101515.27;89232;1262;94140;-56
2022/09/06 04:51:45;;;;;;;3.60;2.00;;;;;;;9.98;68.39;101515.04;89279;1262;79487;-56
2022/09/06 04:53:57;;;;;;;2.70;1.70;;;;;;;10.08;68.51;101515.46;89270;1262;82214;-58
2022/09/06 04:56:11;;;;;;;4.00;1.80;;;;;;;10.19;68.48;101514.69;89297;1260;97024;-58
2022/09/06 04:58:24;;;;;;;4.40;1.90;;;;;;;10.33;68.52;101512.83;89300;1262;87501;-58
2022/09/06 05:00:37;;;;;;;4.40;2.20;;;;;;;10.47;68.40;101509.05;89226;1262;95215;-57
2022/09/06 05:02:49;;;;;;;4.90;2.30;;;;;;;10.65;67.91;101509.56;89226;1262;79066;-57
2022/09/06 05:05:00;;;;;;;2.80;1.80;;;;;;;10.81;67.45;101507.66;89231;1262;82324;-57
2022/09/06 05:07:12;;;;;;;7.00;2.10;;;;;;;10.93;67.34;101511.11;89214;1262;97747;-60
2022/09/06 05:09:29;;;;;;;5.20;2.20;;;;;;;11.05;66.84;101515.54;89281;1262;87687;-60
2022/09/06 05:11:40;;;;;;;3.30;2.00;;;;;;;11.20;66.38;101515.70;89264;1262;94253;-55
2022/09/06 05:13:50;;;;;;;4.00;2.10;;;;;;;11.31;66.24;101515.21;89212;1262;79167;-56
2022/09/06 05:16:02;;;;;;;5.10;2.10;;;;;;;11.42;65.81;101511.88;89281;1262;81655;-56
2022/09/06 05:18:13;;;;;;;6.00;2.00;;;;;;;11.52;65.54;101512.91;89233;1262;98598;-57
2022/09/06 05:20:22;;;;;;;4.20;2.00;;;;;;;11.70;65.39;101515.95;89214;1262;87999;-57
2022/09/06 05:22:38;;;;;;;3.50;2.10;;;;;;;12.44;66.04;101509.88;89201;1262;93962;-56
2022/09/06 05:24:50;;;;;;;7.60;2.10;;;;;;;14.45;65.31;101503.54;89227;1262;79984;-56
2022/09/06 05:27:02;;;;;;;9.70;2.10;;;;;;;16.70;63.65;101496.19;89245;1262;82362;-59
2022/09/06 05:29:14;;;;;;;5.00;2.00;;;;;;;18.64;60.95;101492.20;89243;1262;98148;-59
2022/09/06 05:31:31;;;;;;;3.80;2.00;;;;;;;20.02;58.36;101492.27;89284;1262;88269;-58
2022/09/06 05:33:43;;;;;;;3.60;2.10;;;;;;;21.11;55.03;101484.91;89204;1261;92805;-57
2022/09/06 05:35:53;;;;;;;5.80;1.90;;;;;;;21.94;52.86;101485.52;89225;1262;78931;-58
2022/09/06 05:38:07;;;;;;;5.20;2.30;;;;;;;22.94;50.97;101486.40;89298;1262;81781;-56
2022/09/06 05:40:20;;;;;;;3.50;2.20;;;;;;;23.41;48.41;101489.75;89141;1262;97868;-57
2022/09/06 05:42:34;;;;;;;6.30;1.90;;;;;;;23.99;47.24;101488.24;89257;1262;89179;-57
2022/09/06 05:44:53;;;;;;;7.90;2.30;;;;;;;24.73;45.29;101487.81;89201;1262;95272;-56
2022/09/06 05:47:08;;;;;;;8.50;2.10;;;;;;;25.35;44.17;101487.04;89224;1262;79689;-57
2022/09/06 05:49:17;;;;;;;6.30;2.60;;;;;;;24.79;42.95;101488.45;89262;1262;82957;-57
2022/09/06 05:51:29;;;;;;;5.20;2.30;;;;;;;23.48;42.16;101492.72;89242;1262;98042;-58
2022/09/06 05:53:42;;;;;;;6.20;2.10;;;;;;;22.47;41.66;101491.91;89212;1262;87380;-58
2022/09/06 05:55:52;;;;;;;7.90;2.20;;;;;;;23.32;42.28;101486.49;89203;1262;93697;-58
2022/09/06 05:58:04;;;;;;;7.20;2.10;;;;;;;24.74;41.39;101483.46;89205;1262;76753;-56
2022/09/06 06:00:16;;;;;;;7.00;2.40;;;;;;;25.95;40.16;101477.33;89262;1262;82759;-56
2022/09/06 06:02:30;;;;;;;5.80;2.10;;;;;;;26.69;39.43;101481.29;89261;1262;98505;-55
2022/09/06 06:04:43;;;;;;;4.40;1.80;;;;;;;27.18;38.32;101474.69;89232;1262;89016;-56
2022/09/06 06:06:58;;;;;;;6.60;2.10;;;;;;;27.88;37.76;101473.59;89203;1262;94308;-59
2022/09/06 06:09:07;;;;;;;4.40;1.70;;;;;;;28.47;37.23;101474.31;89194;1262;79630;-58
2022/09/06 06:11:22;;;;;;;8.30;1.90;;;;;;;29.01;35.53;101473.92;89190;1262;82803;-56
2022/09/06 06:13:38;;;;;;;5.20;1.60;;;;;;;28.88;34.50;101473.23;89226;1262;97503;-58
2022/09/06 06:15:51;;;;;;;5.10;1.80;;;;;;;28.38;33.78;101473.44;89204;1262;88806;-58
2022/09/06 06:18:07;;;;;;;6.60;1.90;;;;;;;29.02;32.97;101469.13;89124;1264;93353;-57
2022/09/06 06:20:22;;;;;;;4.50;1.80;;;;;;;29.50;31.83;101470.91;89262;1262;80625;-58
2022/09/06 06:22:32;;;;;;;6.50;1.70;;;;;;;28.42;31.51;101477.30;89271;1262;81900;-58
2022/09/06 06:24:46;;;;;;;8.60;2.50;;;;;;;26.73;32.01;101483.27;89255;1262;97683;-59
2022/09/06 06:26:57;;;;;;;4.20;1.80;;;;;;;25.08;32.66;101483.85;89248;1262;87221;-58
2022/09/06 06:29:13;;;;;;;4.10;1.80;;;;;;;24.36;32.64;101486.61;89224;1262;93935;-59
2022/09/06 06:31:23;;;;;;;5.80;1.50;;;;;;;23.51;33.12;101488.27;89225;1262;80506;-60
2022/09/06 06:33:37;;;;;;;6.80;2.10;;;;;;;22.61;33.29;101493.61;89279;1262;81975;-60
2022/09/06 06:36:01;;;;;;;3.50;1.80;;;;;;;22.16;34.09;101489.82;89204;1262;98569;-60
2022/09/06 06:38:15;;;;;;;3.90;1.60;;;;;;;21.69;34.64;101490.54;89201;1262;88315;-56
2022/09/06 06:40:27;;;;;;;6.40;1.90;;;;;;;21.06;34.87;101492.80;89235;1262;93980;-55
2022/09/06 06:42:38;;;;;;;2.50;1.40;;;;;;;20.65;35.37;101491.27;89221;1262;80732;-58
2022/09/06 06:44:52;;;;;;;4.40;1.60;;;;;;;20.33;35.74;101489.34;89207;1262;81249;-57
2022/09/06 06:47:05;;;;;;;3.20;1.70;;;;;;;19.92;35.88;101496.27;89187;1262;97519;-63
2022/09/06 06:49:16;;;;;;;7.90;2.40;;;;;;;19.61;36.19;101501.62;89195;1263;87737;-61
2022/09/06 06:51:35;;;;;;;4.30;1.30;;;;;;;19.46;36.45;101501.31;89215;1262;94710;-60
2022/09/06 06:53:48;;;;;;;3.70;1.70;;;;;;;19.32;36.70;101504.86;89188;1263;79919;-58
2022/09/06 06:55:58;;;;;;;2.60;1.10;;;;;;;19.30;36.77;101504.88;89210;1264;82665;-58
2022/09/06 06:58:16;;;;;;;3.20;1.20;;;;;;;19.50;36.90;101507.48;89264;1264;97860;-60
2022/09/06 07:00:28;;;;;;;1.90;0.80;;;;;;;19.93;36.47;101509.52;89225;1262;87985;-59
2022/09/06 07:02:43;;;;;;;2.30;1.00;;;;;;;20.54;35.87;101505.63;89186;1262;94707;-56
2022/09/06 07:04:57;;;;;;;3.60;1.40;;;;;;;21.24;35.38;101502.13;89158;1264;79422;-57
2022/09/06 07:07:16;;;;;;;4.10;1.40;;;;;;;21.37;34.89;101503.88;89209;1262;81745;-57
2022/09/06 07:09:33;;;;;;;6.20;1.40;;;;;;;21.49;35.03;101506.12;89221;1264;98930;-57
2022/09/06 07:11:45;;;;;;;2.20;1.10;;;;;;;21.77;34.10;101503.46;89261;1262;88084;-57
2022/09/06 07:13:55;;;;;;;4.30;1.20;;;;;;;22.22;34.08;101509.84;89199;1262;94661;-57
2022/09/06 07:16:18;;;;;;;4.50;1.40;;;;;;;22.25;33.67;101505.73;89207;1263;78683;-58
2022/09/06 07:18:36;;;;;;;2.50;1.20;;;;;;;22.46;34.11;101505.51;89245;1263;82167;-58
2022/09/06 07:20:48;;;;;;;3.60;1.00;;;;;;;22.72;32.46;101505.35;89233;1263;97129;-59
2022/09/06 07:23:05;;;;;;;2.60;1.20;;;;;;;22.61;32.95;101506.30;89134;1264;87791;-60
2022/09/06 07:25:19;;;;;;;3.50;1.00;;;;;;;22.43;32.79;101510.11;89186;1263;95494;-58
2022/09/06 07:27:32;;;;;;;2.30;1.00;;;;;;;22.44;32.53;101505.79;89221;1262;80156;-58
2022/09/06 07:29:43;;;;;;;4.10;1.30;;;;;;;22.34;32.81;101508.46;89216;1264;81434;-59
2022/09/06 07:32:00;;;;;;;3.30;0.80;;;;;;;22.16;32.61;101510.30;89168;1264;98796;-61
2022/09/06 07:34:11;;;;;;;4.30;1.10;;;;;;;22.39;32.31;101506.77;89193;1262;89005;-62
2022/09/06 07:36:26;;;;;;;3.90;1.10;;;;;;;22.50;32.23;101504.98;89196;1262;93248;-61
2022/09/06 07:38:43;;;;;;;2.40;0.90;;;;;;;22.56;32.29;101501.71;89211;1262;77494;-61
2022/09/06 07:40:59;;;;;;;2.00;1.00;;;;;;;23.38;32.51;101496.59;89222;1262;83117;-60
2022/09/06 07:43:15;;;;;;;3.10;1.00;;;;;;;24.78;31.66;101494.96;89177;1263;97936;-60
2022/09/06 07:45:27;;;;;;;4.40;0.90;;;;;;;25.87;30.65;101492.44;89207;1262;88651;-60
2022/09/06 07:47:40;;;;;;;1.80;1.10;;;;;;;26.82;29.56;101484.91;89216;1264;94188;-58
2022/09/06 07:49:54;;;;;;;3.20;1.00;;;;;;;27.62;29.25;101485.63;89188;1262;80214;-58
2022/09/06 07:52:03;;;;;;;3.40;1.10;;;;;;;28.21;28.32;101489.37;89208;1262;82263;-59
2022/09/06 07:54:19;;;;;;;2.80;0.80;;;;;;;28.63;27.71;101486.45;88671;1262;798774;-61
2022/09/06 07:56:34;;;;;;;3.10;1.10;;;;;;;29.27;28.13;101483.03;89216;1264;88140;-61
2022/09/06 07:58:47;;;;;;;4.30;1.20;;;;;;;29.97;27.46;101484.40;89174;1262;93477;-56
2022/09/06 08:01:15;;;;;;;2.60;0.90;;;;;;;29.82;26.00;101487.48;89182;1263;78274;-56
2022/09/06 08:03:27;;;;;;;3.10;0.90;;;;;;;29.83;26.05;101490.30;89240;1264;82959;-58
2022/09/06 08:05:36;;;;;;;3.70;1.20;;;;;;;30.07;25.68;101493.85;89260;1262;98880;-59
2022/09/06 08:07:47;;;;;;;4.00;1.70;;;;;;;30.44;25.79;101490.94;89187;1263;87713;-59
2022/09/06 08:10:01;;;;;;;1.90;0.80;;;;;;;30.70;24.64;101489.81;89213;1262;94377;-59
2022/09/06 08:12:10;;;;;;;;;;;;;;;31.10;24.17;101487.45;89236;1262;79787;-60
2022/09/06 08:14:19;;;;;;;3.10;0.80;;;;;;;31.25;23.55;101487.23;89219;1263;81419;-59
2022/09/06 08:16:33;;;;;;;1.90;0.80;;;;;;;31.28;22.92;101485.84;89163;1262;97575;-59
2022/09/06 08:18:41;;;;;;;3.60;1.30;;;;;;;31.22;23.27;101484.82;89157;1262;88803;-59
2022/09/06 08:20:56;;;;;;;3.40;1.30;;;;;;;31.31;23.68;101482.05;89154;1262;95642;-60
2022/09/06 08:23:12;;;;;;;1.20;0.70;;;;;;;31.44;23.86;101477.19;89191;1262;79840;-60
2022/09/06 08:25:29;;;;;;;4.00;1.00;;;;;;;31.46;23.30;101482.43;89261;1263;82129;-60
2022/09/06 08:27:42;;;;;;;4.00;1.10;;;;;;;31.10;23.45;101485.77;89199;1262;97522;-59
2022/09/06 08:29:53;;;;;;;2.40;0.70;;;;;;;31.12;22.61;101484.78;89228;1262;87621;-60
2022/09/06 08:32:07;;;;;;;3.00;0.80;;;;;;;31.21;22.93;101482.81;89210;1262;93825;-61
2022/09/06 08:34:21;;;;;;;1.00;0.60;;;;;;;31.61;21.79;101483.09;89177;1262;80380;-61
2022/09/06 08:36:32;;;;;;;1.40;0.70;;;;;;;31.52;21.64;101480.38;89243;1263;82680;-58
2022/09/06 08:38:49;;;;;;;1.80;0.80;;;;;;;31.52;21.92;101477.27;89240;1263;98604;-60
2022/09/06 08:41:12;;;;;;;3.00;0.70;;;;;;;31.07;21.65;101478.80;89252;1263;88121;-59
2022/09/06 08:43:24;;;;;;;3.40;0.80;;;;;;;30.80;21.52;101478.03;89263;1261;94713;-58
2022/09/06 08:45:37;;;;;;;4.00;1.10;;;;;;;31.05;21.66;101472.38;89247;1263;80368;-58
2022/09/06 08:47:51;;;;;;;1.70;0.70;;;;;;;31.16;21.50;101469.42;89309;1263;80574;-62
2022/09/06 08:50:05;;;;;;;3.20;0.80;;;;;;;31.20;21.56;101460.23;89275;1263;97860;-61
2022/09/06 08:52:50;;;;;;;3.40;0.90;;;;;;;31.06;21.87;101462.66;89287;1262;87362;-59
2022/09/06 08:55:16;;;;;;;2.00;0.80;;;;;;;31.06;21.08;101464.60;89217;1263;94712;-60
2022/09/06 08:57:41;;;;;;;2.60;0.90;;;;;;;30.54;21.40;101462.00;89209;1262;79758;-58
2022/09/06 09:00:00;;;;;;;4.40;1.00;;;;;;;30.89;21.63;101453.59;89247;1262;82781;-59
2022/09/06 09:02:15;;;;;;;4.60;0.80;;;;;;;31.19;21.00;101456.44;89254;1254;99149;-59
2022/09/06 09:04:35;;;;;;;1.40;0.90;;;;;;;30.84;21.19;101451.59;89232;1264;88817;-59
2022/09/06 09:06:56;;;;;;;1.80;1.00;;;;;;;30.55;21.43;101454.17;89163;1262;94245;-59
2022/09/06 09:09:08;;;;;;;1.60;0.80;;;;;;;30.40;21.65;101448.08;89217;1264;80140;-60
2022/09/06 09:11:20;;;;;;;1.20;0.70;;;;;;;30.16;21.58;101446.14;89206;1262;82305;-59
2022/09/06 09:13:34;;;;;;;;;;;;;;;30.07;21.93;101445.13;89175;1262;97867;-60
2022/09/06 09:15:52;;;;;;;6.40;1.20;;;;;;;29.87;21.69;101441.67;89202;1262;88393;-59
2022/09/06 09:18:08;;;;;;;3.60;1.00;;;;;;;29.44;21.98;101436.88;89160;1262;95303;-58
2022/09/06 09:20:21;;;;;;;2.50;1.10;;;;;;;29.60;22.07;101440.66;89104;1263;78924;-60
2022/09/06 09:22:35;;;;;;;1.90;0.60;;;;;;;29.93;21.79;101435.16;89224;1262;82432;-58
2022/09/06 09:24:50;;;;;;;3.60;0.90;;;;;;;29.46;21.75;101438.92;89194;1262;97514;-59
2022/09/06 09:27:09;;;;;;;2.00;0.70;;;;;;;29.33;22.02;101434.14;89208;1262;88791;-59
2022/09/06 09:29:19;;;;;;;1.60;0.90;;;;;;;29.31;22.05;101432.30;89154;1262;94823;-60
2022/09/06 09:31:38;;;;;;;1.10;0.60;;;;;;;29.02;21.47;101439.34;89159;1263;79995;-61
2022/09/06 09:33:50;;;;;;;3.00;0.80;;;;;;;28.15;22.35;101441.86;89187;1263;82052;-60
2022/09/06 09:36:02;;;;;;;2.70;0.60;;;;;;;27.86;22.64;101435.75;89231;1263;97461;-60
2022/09/06 09:38:20;;;;;;;1.10;0.70;;;;;;;27.50;22.46;101431.14;89179;1263;88610;-59
2022/09/06 09:40:40;;;;;;;2.60;0.90;;;;;;;27.15;23.05;101424.52;89196;1263;94826;-59
2022/09/06 09:42:55;;;;;;;1.80;0.70;;;;;;;26.81;22.71;101420.86;89189;1262;80899;-58
2022/09/06 09:45:21;;;;;;;2.50;0.60;;;;;;;26.15;23.28;101419.54;89172;1262;82051;-57
2022/09/06 09:47:37;;;;;;;1.90;0.70;;;;;;;25.33;23.90;101421.62;89153;1262;99340;-61
2022/09/06 09:49:48;;;;;;;2.00;0.60;;;;;;;25.12;24.34;101417.37;89178;1262;88386;-62
2022/09/06 09:52:18;;;;;;;2.00;0.90;;;;;;;24.99;24.91;101418.88;89211;1262;95468;-59
2022/09/06 09:54:41;;;;;;;3.50;0.80;;;;;;;24.32;25.06;101421.77;89159;1262;81317;-60
2022/09/06 09:56:57;;;;;;;1.90;1.20;;;;;;;24.04;25.44;101422.73;89152;1263;82056;-59
2022/09/06 09:59:24;;;;;;;1.30;0.70;;;;;;;23.82;25.97;101416.14;89116;1262;98952;-59
2022/09/06 10:01:43;;;;;;;1.20;0.70;;;;;;;23.46;26.16;101411.39;89120;1263;87770;-59
2022/09/06 10:04:00;;;;;;;2.20;0.60;;;;;;;23.18;26.49;101407.77;89128;1262;93666;-59
2022/09/06 10:06:15;;;;;;;1.80;0.70;;;;;;;23.13;26.46;101405.14;89173;1262;79005;-57
2022/09/06 10:08:30;;;;;;;5.70;1.80;;;;;;;23.07;26.89;101399.02;89199;1264;83187;-58
2022/09/06 10:10:48;;;;;;;3.80;0.80;;;;;;;22.84;27.25;101396.62;89156;1263;99258;-57
2022/09/06 10:13:19;;;;;;;2.30;0.90;;;;;;;22.78;27.19;101394.88;89193;1262;86791;-60
2022/09/06 10:15:43;;;;;;;1.70;0.80;;;;;;;22.78;27.28;101394.67;89159;1262;94355;-61
2022/09/06 10:17:56;;;;;;;1.60;0.60;;;;;;;22.64;27.27;101391.99;89202;1263;80258;-61
2022/09/06 10:20:11;;;;;;;2.10;0.70;;;;;;;22.41;27.53;101387.48;89197;1262;81800;-61
2022/09/06 10:22:29;;;;;;;2.40;0.70;;;;;;;22.53;27.81;101384.21;89185;1262;97435;-59
2022/09/06 10:24:54;;;;;;;1.60;0.40;;;;;;;22.45;28.08;101380.63;89162;1262;89412;-58
2022/09/06 10:27:07;;;;;;;2.00;0.80;;;;;;;22.25;28.01;101379.80;89149;1262;93540;-59
2022/09/06 10:29:29;;;;;;;1.10;0.70;;;;;;;22.22;27.98;101381.52;89166;1262;79201;-59
2022/09/06 10:32:07;;;;;;;1.80;0.60;;;;;;;22.19;28.08;101378.91;89185;1263;82049;-61
2022/09/06 10:34:42;;;;;;;2.00;0.70;;;;;;;22.10;28.00;101380.02;89173;1263;98973;-61